createdAt,value
2023-05-05T00:01:27.191Z,100527.00
2023-05-05T00:03:53.765Z,100542.41
2023-05-05T00:06:20.344Z,100533.13
2023-05-05T00:08:46.999Z,100530.56
2023-05-05T00:11:13.552Z,100521.66
2023-05-05T00:13:40.077Z,100518.63
2023-05-05T00:16:06.996Z,100517.59
2023-05-05T00:18:33.819Z,100517.78
2023-05-05T00:21:00.816Z,100523.44
2023-05-05T00:23:27.310Z,100520.09
2023-05-05T00:25:53.975Z,100508.78
2023-05-05T00:28:20.689Z,100508.78
2023-05-05T00:30:47.399Z,100502.72
2023-05-05T00:33:14.106Z,100507.44
2023-05-05T00:35:40.791Z,100511.72
2023-05-05T00:38:07.364Z,100504.16
2023-05-05T00:40:33.973Z,100508.38
2023-05-05T00:43:00.592Z,100506.28
2023-05-05T00:45:27.691Z,100503.88
2023-05-05T00:47:56.877Z,100500.63
2023-05-05T00:50:28.626Z,100512.00
2023-05-05T00:53:00.244Z,100502.50
2023-05-05T00:55:28.443Z,100492.56
2023-05-05T00:57:56.800Z,100500.84
2023-05-05T01:00:23.651Z,100499.06
2023-05-05T01:02:51.859Z,100494.13
2023-05-05T01:05:19.923Z,100494.13
2023-05-05T01:07:51.605Z,100489.19
2023-05-05T01:10:45.093Z,100485.03
2023-05-05T01:13:47.118Z,100477.78
2023-05-05T01:16:29.164Z,100476.75
2023-05-05T01:19:20.401Z,100484.25
2023-05-05T01:21:54.475Z,100485.84
2023-05-05T01:24:39.266Z,100485.88
2023-05-05T01:27:24.497Z,100491.31
2023-05-05T01:30:16.931Z,100494.47
2023-05-05T01:32:55.176Z,100496.91
2023-05-05T01:35:37.621Z,100480.06
2023-05-05T01:38:16.960Z,100491.53
2023-05-05T01:40:48.798Z,100494.78
2023-05-05T01:43:19.115Z,100489.53
2023-05-05T01:45:47.625Z,100490.63
2023-05-05T01:48:18.144Z,100498.81
2023-05-05T01:50:46.706Z,100508.09
2023-05-05T01:53:14.745Z,100504.56
2023-05-05T01:55:42.732Z,100502.38
2023-05-05T01:58:11.979Z,100501.50
2023-05-05T02:00:39.027Z,100500.06
2023-05-05T02:03:07.821Z,100498.72
2023-05-05T02:05:36.922Z,100496.69
2023-05-05T02:08:05.657Z,100508.97
2023-05-05T02:10:32.866Z,100501.78
2023-05-05T02:13:02.661Z,100506.06
2023-05-05T02:15:31.390Z,100506.97
2023-05-05T02:17:59.334Z,100506.88
2023-05-05T02:20:27.346Z,100508.38
2023-05-05T02:22:54.354Z,100508.56
2023-05-05T02:25:23.610Z,100508.13
2023-05-05T02:27:55.787Z,100513.31
2023-05-05T02:30:23.100Z,100511.69
2023-05-05T02:33:04.792Z,100516.19
2023-05-05T02:35:36.603Z,100523.59
2023-05-05T02:38:06.044Z,100527.75
2023-05-05T02:40:41.891Z,100532.38
2023-05-05T02:43:11.539Z,100528.69
2023-05-05T02:45:38.587Z,100531.94
2023-05-05T02:48:06.010Z,100532.38
2023-05-05T02:50:37.357Z,100534.97
2023-05-05T02:53:16.356Z,100541.88
2023-05-05T02:55:53.103Z,100549.19
2023-05-05T02:58:28.952Z,100543.34
2023-05-05T03:01:00.030Z,100532.25
2023-05-05T03:03:39.977Z,100545.03
2023-05-05T03:06:16.139Z,100551.06
2023-05-05T03:08:46.996Z,100551.72
2023-05-05T03:11:46.290Z,100557.16
2023-05-05T03:14:17.145Z,100550.81
2023-05-05T03:16:46.288Z,100548.00
2023-05-05T03:19:17.319Z,100550.25
2023-05-05T03:21:45.364Z,100557.59
2023-05-05T03:24:20.010Z,100556.63
2023-05-05T03:26:55.160Z,100558.97
2023-05-05T03:29:25.790Z,100555.81
2023-05-05T03:31:53.209Z,100552.41
2023-05-05T03:34:19.907Z,100563.47
2023-05-05T03:36:48.084Z,100567.09
2023-05-05T03:39:16.020Z,100577.22
2023-05-05T03:41:42.749Z,100571.94
2023-05-05T03:44:10.965Z,100571.44
2023-05-05T03:46:37.661Z,100566.06
2023-05-05T03:49:07.046Z,100556.41
2023-05-05T03:51:33.757Z,100553.16
2023-05-05T03:54:00.360Z,100558.22
2023-05-05T03:56:27.146Z,100566.47
2023-05-05T03:58:53.752Z,100566.69
2023-05-05T04:01:20.849Z,100563.44
2023-05-05T04:03:47.833Z,100571.81
2023-05-05T04:06:14.594Z,100562.09
2023-05-05T04:08:41.350Z,100572.56
2023-05-05T04:11:07.959Z,100568.63
2023-05-05T04:13:35.026Z,100563.81
2023-05-05T04:16:02.573Z,100557.88
2023-05-05T04:18:29.448Z,100566.56
2023-05-05T04:20:56.269Z,100562.00
2023-05-05T04:23:23.013Z,100577.16
2023-05-05T04:25:49.898Z,100573.56
2023-05-05T04:28:17.310Z,100578.72
2023-05-05T04:30:44.311Z,100565.00
2023-05-05T04:33:11.106Z,100576.22
2023-05-05T04:35:37.821Z,100583.31
2023-05-05T04:38:04.451Z,100590.19
2023-05-05T04:40:31.368Z,100596.25
2023-05-05T04:42:58.676Z,100587.63
2023-05-05T04:45:25.423Z,100592.69
2023-05-05T04:47:52.076Z,100592.28
2023-05-05T04:50:18.839Z,100595.19
2023-05-05T04:52:45.477Z,100601.78
2023-05-05T04:55:12.121Z,100607.81
2023-05-05T04:57:39.043Z,100604.72
2023-05-05T05:00:06.585Z,100620.59
2023-05-05T05:02:33.389Z,100614.94
2023-05-05T05:04:59.985Z,100615.41
2023-05-05T05:07:26.680Z,100618.94
2023-05-05T05:09:53.323Z,100623.53
2023-05-05T05:12:19.957Z,100620.44
2023-05-05T05:14:46.532Z,100621.50
2023-05-05T05:17:13.398Z,100623.16
2023-05-05T05:19:41.676Z,100629.03
2023-05-05T05:22:08.879Z,100637.28
2023-05-05T05:24:39.013Z,100638.44
2023-05-05T05:27:09.845Z,100643.63
2023-05-05T05:29:37.644Z,100639.13
2023-05-05T05:32:04.411Z,100643.78
2023-05-05T05:34:31.341Z,100642.34
2023-05-05T05:36:58.600Z,100645.38
2023-05-05T05:39:25.270Z,100644.13
2023-05-05T05:41:51.973Z,100641.81
2023-05-05T05:44:18.762Z,100647.69
2023-05-05T05:46:45.292Z,100649.16
2023-05-05T05:49:12.059Z,100653.09
2023-05-05T05:51:38.612Z,100651.84
2023-05-05T05:54:05.256Z,100653.69
2023-05-05T05:56:32.260Z,100660.72
2023-05-05T05:58:59.051Z,100659.81
2023-05-05T06:01:25.645Z,100669.84
2023-05-05T06:03:52.672Z,100667.25
2023-05-05T06:06:20.157Z,100671.97
2023-05-05T06:08:46.722Z,100668.00
2023-05-05T06:11:13.292Z,100672.97
2023-05-05T06:13:39.902Z,100673.41
2023-05-05T06:16:07.059Z,100676.56
2023-05-05T06:18:33.806Z,100670.50
2023-05-05T06:21:00.392Z,100675.44
2023-05-05T06:23:28.444Z,100671.91
2023-05-05T06:26:00.089Z,100667.47
2023-05-05T06:28:26.685Z,100672.66
2023-05-05T06:30:53.188Z,100666.69
2023-05-05T06:33:19.872Z,100656.28
2023-05-05T06:35:47.698Z,100659.00
2023-05-05T06:38:14.630Z,100663.09
2023-05-05T06:40:42.021Z,100661.06
2023-05-05T06:43:08.586Z,100663.25
2023-05-05T06:45:43.684Z,100668.34
2023-05-05T06:48:10.626Z,100672.84
2023-05-05T06:50:37.111Z,100674.13
2023-05-05T06:53:03.730Z,100681.94
2023-05-05T06:55:30.769Z,100673.09
2023-05-05T06:57:57.427Z,100673.59
2023-05-05T07:00:24.281Z,100669.53
2023-05-05T07:02:51.029Z,100683.31
2023-05-05T07:05:18.293Z,100672.84
2023-05-05T07:07:55.559Z,100675.16
2023-05-05T07:10:23.716Z,100680.19
2023-05-05T07:12:51.701Z,100686.50
2023-05-05T07:15:27.510Z,100701.75
2023-05-05T07:17:55.308Z,100699.94
2023-05-05T07:20:21.889Z,100701.50
2023-05-05T07:22:48.445Z,100700.19
2023-05-05T07:25:15.070Z,100721.66
2023-05-05T07:27:41.906Z,100723.78
2023-05-05T07:30:13.237Z,100717.94
2023-05-05T07:32:42.110Z,100724.81
2023-05-05T07:35:09.041Z,100723.31
2023-05-05T07:37:35.884Z,100728.50
2023-05-05T07:40:02.480Z,100726.69
2023-05-05T07:42:29.142Z,100729.06
2023-05-05T07:44:55.696Z,100738.53
2023-05-05T07:47:22.386Z,100734.16
2023-05-05T07:49:48.975Z,100728.41
2023-05-05T07:52:15.880Z,100728.44
2023-05-05T07:54:42.575Z,100731.34
2023-05-05T07:57:09.283Z,100734.41
2023-05-05T07:59:36.025Z,100737.38
2023-05-05T08:02:02.697Z,100733.13
2023-05-05T08:04:29.386Z,100733.25
2023-05-05T08:06:56.017Z,100745.72
2023-05-05T08:09:22.622Z,100739.34
2023-05-05T08:11:49.239Z,100734.81
2023-05-05T08:14:15.818Z,100739.66
2023-05-05T08:16:42.437Z,100744.69
2023-05-05T08:19:21.160Z,100741.88
2023-05-05T08:21:51.812Z,100747.53
2023-05-05T08:24:18.566Z,100747.31
2023-05-05T08:26:45.347Z,100748.81
2023-05-05T08:29:11.983Z,100746.31
2023-05-05T08:31:38.806Z,100754.81
2023-05-05T08:34:06.521Z,100748.59
2023-05-05T08:36:33.301Z,100756.13
2023-05-05T08:39:00.254Z,100756.19
2023-05-05T08:41:27.990Z,100753.22
2023-05-05T08:43:55.255Z,100754.56
2023-05-05T08:46:22.636Z,100761.97
2023-05-05T08:48:52.407Z,100753.22
2023-05-05T08:51:20.147Z,100753.66
2023-05-05T08:53:54.861Z,100758.53
2023-05-05T08:56:22.110Z,100754.72
2023-05-05T08:58:49.450Z,100751.44
2023-05-05T09:01:17.783Z,100737.31
2023-05-05T09:03:46.137Z,100749.81
2023-05-05T09:06:12.958Z,100751.44
2023-05-05T09:08:40.234Z,100742.91
2023-05-05T09:11:07.069Z,100749.34
2023-05-05T09:13:33.695Z,100743.38
2023-05-05T09:16:00.351Z,100744.84
2023-05-05T09:18:27.048Z,100738.34
2023-05-05T09:20:53.689Z,100745.25
2023-05-05T09:23:21.337Z,100737.69
2023-05-05T09:26:03.652Z,100745.16
2023-05-05T09:28:30.377Z,100744.91
2023-05-05T09:31:12.552Z,100746.81
2023-05-05T09:33:39.410Z,100746.31
2023-05-05T09:36:06.400Z,100747.47
2023-05-05T09:38:34.699Z,100755.25
2023-05-05T09:41:01.501Z,100760.47
2023-05-05T09:43:28.154Z,100755.16
2023-05-05T09:46:07.400Z,100763.53
2023-05-05T09:48:34.233Z,100768.38
2023-05-05T09:51:01.074Z,100759.28
2023-05-05T09:53:39.025Z,100764.63
2023-05-05T09:56:06.807Z,100755.44
2023-05-05T09:58:33.356Z,100758.00
2023-05-05T10:01:01.242Z,100746.47
2023-05-05T10:03:27.873Z,100746.28
2023-05-05T10:05:56.861Z,100749.59
2023-05-05T10:08:29.420Z,100748.06
2023-05-05T10:10:57.218Z,100751.75
2023-05-05T10:13:24.829Z,100752.22
2023-05-05T10:15:53.754Z,100754.22
2023-05-05T10:18:25.302Z,100753.22
2023-05-05T10:20:58.163Z,100747.03
2023-05-05T10:23:35.933Z,100747.16
2023-05-05T10:26:06.088Z,100751.06
2023-05-05T10:28:52.880Z,100750.50
2023-05-05T10:31:26.446Z,100746.81
2023-05-05T10:34:00.571Z,100746.25
2023-05-05T10:36:27.808Z,100735.19
2023-05-05T10:38:59.763Z,100733.16
2023-05-05T10:41:26.872Z,100739.91
2023-05-05T10:44:00.440Z,100728.25
2023-05-05T10:46:28.780Z,100723.31
2023-05-05T10:49:07.704Z,100722.47
2023-05-05T10:51:49.866Z,100711.78
2023-05-05T10:54:43.320Z,100698.91
2023-05-05T10:57:11.962Z,100706.88
2023-05-05T10:59:38.844Z,100697.34
2023-05-05T11:02:28.540Z,100695.88
2023-05-05T11:05:18.090Z,100691.97
2023-05-05T11:07:46.690Z,100688.63
2023-05-05T11:10:15.727Z,100684.03
2023-05-05T11:12:51.922Z,100673.84
2023-05-05T11:15:27.595Z,100677.31
2023-05-05T11:17:58.497Z,100674.66
2023-05-05T11:20:39.397Z,100673.97
2023-05-05T11:23:06.153Z,100673.59
2023-05-05T11:25:40.427Z,100660.94
2023-05-05T11:28:17.809Z,100656.09
2023-05-05T11:31:04.781Z,100653.22
2023-05-05T11:33:38.999Z,100644.00
2023-05-05T11:36:10.329Z,100651.34
2023-05-05T11:38:59.396Z,100647.03
2023-05-05T11:41:34.930Z,100648.34
2023-05-05T11:44:14.467Z,100648.91
2023-05-05T11:47:03.819Z,100640.78
2023-05-05T11:49:31.455Z,100647.47
2023-05-05T11:52:08.469Z,100646.16
2023-05-05T11:54:36.780Z,100640.81
2023-05-05T11:57:08.158Z,100647.47
2023-05-05T11:59:37.208Z,100643.59
2023-05-05T12:02:04.794Z,100644.59
2023-05-05T12:04:31.942Z,100641.72
2023-05-05T12:06:59.372Z,100641.41
2023-05-05T12:09:27.248Z,100661.50
2023-05-05T12:11:55.808Z,100658.91
2023-05-05T12:14:23.630Z,100649.66
2023-05-05T12:17:07.920Z,100654.28
2023-05-05T12:19:36.134Z,100661.19
2023-05-05T12:22:04.363Z,100655.00
2023-05-05T12:24:31.548Z,100651.88
2023-05-05T12:27:11.339Z,100651.78
2023-05-05T12:29:38.149Z,100660.13
2023-05-05T12:32:05.185Z,100664.47
2023-05-05T12:34:32.365Z,100679.13
2023-05-05T12:36:59.132Z,100679.78
2023-05-05T12:39:36.483Z,100687.03
2023-05-05T12:42:04.362Z,100694.13
2023-05-05T12:44:38.439Z,100700.84
2023-05-05T12:47:06.096Z,100701.44
2023-05-05T12:49:47.977Z,100698.97
2023-05-05T12:52:16.115Z,100694.66
2023-05-05T12:54:56.847Z,100694.72
2023-05-05T12:57:23.537Z,100686.69
2023-05-05T12:59:51.648Z,100678.03
2023-05-05T13:02:19.298Z,100673.69
2023-05-05T13:04:53.819Z,100683.53
2023-05-05T13:07:22.108Z,100683.50
2023-05-05T13:09:50.292Z,100679.69
2023-05-05T13:12:20.796Z,100681.31
2023-05-05T13:14:48.450Z,100664.56
2023-05-05T13:17:15.070Z,100659.41
2023-05-05T13:19:41.931Z,100654.34
2023-05-05T13:22:12.030Z,100650.28
2023-05-05T13:24:50.489Z,100639.00
2023-05-05T13:27:18.015Z,100646.22
2023-05-05T13:29:44.628Z,100655.06
2023-05-05T13:32:11.483Z,100650.13
2023-05-05T13:34:39.005Z,100643.28
2023-05-05T13:37:05.933Z,100642.00
2023-05-05T13:39:32.464Z,100645.72
2023-05-05T13:41:59.185Z,100642.25
2023-05-05T13:44:25.682Z,100642.91
2023-05-05T13:46:52.408Z,100640.38
2023-05-05T13:49:20.025Z,100646.25
2023-05-05T13:51:46.905Z,100646.88
2023-05-05T13:54:13.814Z,100650.78
2023-05-05T13:56:40.649Z,100641.94
2023-05-05T13:59:07.289Z,100640.53
2023-05-05T14:01:34.047Z,100645.19
2023-05-05T14:04:03.567Z,100641.94
2023-05-05T14:06:32.482Z,100641.59
2023-05-05T14:08:59.309Z,100647.28
2023-05-05T14:11:25.871Z,100635.34
2023-05-05T14:13:52.641Z,100638.97
2023-05-05T14:16:19.365Z,100648.47
2023-05-05T14:18:46.173Z,100656.72
2023-05-05T14:21:13.032Z,100669.78
2023-05-05T14:23:39.917Z,100671.97
2023-05-05T14:26:08.674Z,100677.28
2023-05-05T14:28:35.596Z,100687.38
2023-05-05T14:31:02.426Z,100679.28
2023-05-05T14:33:29.132Z,100679.75
2023-05-05T14:35:55.881Z,100690.94
2023-05-05T14:38:22.694Z,100685.13
2023-05-05T14:40:49.414Z,100684.34
2023-05-05T14:43:16.051Z,100691.09
2023-05-05T14:45:44.098Z,100688.13
2023-05-05T14:48:10.952Z,100707.19
2023-05-05T14:50:38.490Z,100711.75
2023-05-05T14:53:05.247Z,100718.66
2023-05-05T14:55:32.785Z,100730.72
2023-05-05T14:57:59.327Z,100733.06
2023-05-05T15:00:26.706Z,100733.69
2023-05-05T15:02:53.386Z,100775.88
2023-05-05T15:05:20.005Z,100739.66
2023-05-05T15:07:46.496Z,100757.34
2023-05-05T15:10:13.153Z,100739.53
2023-05-05T15:12:39.715Z,100735.97
2023-05-05T15:15:08.506Z,100733.44
2023-05-05T15:17:37.269Z,100729.59
2023-05-05T15:20:05.658Z,100733.75
2023-05-05T15:22:32.220Z,100723.97
2023-05-05T15:24:58.857Z,100720.41
2023-05-05T15:27:25.422Z,100724.34
2023-05-05T15:29:52.043Z,100722.31
2023-05-05T15:32:18.611Z,100729.66
2023-05-05T15:34:45.423Z,100732.00
2023-05-05T15:37:11.978Z,100733.13
2023-05-05T15:39:38.501Z,100730.50
2023-05-05T15:42:05.140Z,100732.09
2023-05-05T15:44:31.812Z,100728.72
2023-05-05T15:46:58.451Z,100732.25
2023-05-05T15:49:25.095Z,100729.84
2023-05-05T15:51:51.711Z,100738.88
2023-05-05T15:54:18.467Z,100734.31
2023-05-05T15:56:45.039Z,100730.88
2023-05-05T15:59:11.630Z,100731.28
2023-05-05T16:01:38.281Z,100738.56
2023-05-05T16:04:05.112Z,100745.38
2023-05-05T16:06:31.981Z,100752.69
2023-05-05T16:08:58.631Z,100740.00
2023-05-05T16:11:26.275Z,100736.59
2023-05-05T16:13:53.204Z,100725.94
2023-05-05T16:16:20.057Z,100726.06
2023-05-05T16:18:46.694Z,100732.22
2023-05-05T16:21:13.379Z,100726.97
2023-05-05T16:23:40.300Z,100734.53
2023-05-05T16:26:06.862Z,100727.75
2023-05-05T16:28:34.221Z,100719.69
2023-05-05T16:31:02.115Z,100715.50
2023-05-05T16:33:29.584Z,100726.38
2023-05-05T16:35:56.685Z,100726.88
2023-05-05T16:38:23.249Z,100719.41
2023-05-05T16:40:49.744Z,100713.78
2023-05-05T16:43:16.365Z,100707.56
2023-05-05T16:45:43.428Z,100706.38
2023-05-05T16:52:48.066Z,100712.53
2023-05-05T16:55:15.737Z,100715.47
2023-05-05T16:57:42.289Z,100704.41
2023-05-05T17:00:09.320Z,100707.69
2023-05-05T17:02:36.089Z,100708.94
2023-05-05T17:05:02.848Z,100705.03
2023-05-05T17:07:29.380Z,100707.09
2023-05-05T17:09:55.940Z,100701.31
2023-05-05T17:12:22.451Z,100700.97
2023-05-05T17:14:49.180Z,100697.56
2023-05-05T17:17:15.851Z,100708.56
2023-05-05T17:19:42.703Z,100705.28
2023-05-05T17:22:09.184Z,100708.47
2023-05-05T17:24:36.291Z,100710.13
2023-05-05T17:27:03.253Z,100710.25
2023-05-05T17:29:29.854Z,100710.81
2023-05-05T17:31:56.435Z,100710.13
2023-05-05T17:34:23.039Z,100708.94
2023-05-05T17:36:49.533Z,100718.59
2023-05-05T17:39:16.116Z,100713.88
2023-05-05T17:41:42.783Z,100710.13
2023-05-05T17:44:09.312Z,100718.09
2023-05-05T17:46:36.324Z,100722.66
2023-05-05T17:49:02.989Z,100720.91
2023-05-05T17:51:29.588Z,100725.94
2023-05-05T17:53:56.191Z,100731.22
2023-05-05T17:56:22.740Z,100735.66
2023-05-05T17:58:49.531Z,100734.88
2023-05-05T18:01:23.358Z,100740.53
2023-05-05T18:03:50.479Z,100743.25
2023-05-05T18:06:17.236Z,100734.22
2023-05-05T18:08:44.784Z,100738.47
2023-05-05T18:11:11.594Z,100742.41
2023-05-05T18:13:38.836Z,100740.09
2023-05-05T18:16:06.121Z,100740.84
2023-05-05T18:18:32.888Z,100739.00
2023-05-05T18:20:59.614Z,100741.13
2023-05-05T18:23:26.238Z,100729.59
2023-05-05T18:25:52.818Z,100738.06
2023-05-05T18:28:20.253Z,100738.44
2023-05-05T18:30:46.829Z,100729.59
2023-05-05T18:33:13.353Z,100740.00
2023-05-05T18:35:39.853Z,100737.25
2023-05-05T18:38:06.545Z,100742.06
2023-05-05T18:40:33.104Z,100733.94
2023-05-05T18:42:59.715Z,100735.81
2023-05-05T18:45:26.319Z,100745.75
2023-05-05T18:47:53.154Z,100753.78
2023-05-05T18:50:19.827Z,100766.13
2023-05-05T18:52:46.444Z,100759.31
2023-05-05T18:55:12.978Z,100768.69
2023-05-05T18:57:39.616Z,100772.19
2023-05-05T19:00:06.865Z,100776.34
2023-05-05T19:02:33.447Z,100777.56
2023-05-05T19:05:00.076Z,100778.53
2023-05-05T19:07:34.895Z,100774.63
2023-05-05T19:10:04.595Z,100777.84
2023-05-05T19:12:31.227Z,100788.81
2023-05-05T19:14:58.006Z,100782.53
2023-05-05T19:17:24.615Z,100788.19
2023-05-05T19:19:51.432Z,100786.09
2023-05-05T19:22:18.056Z,100792.81
2023-05-05T19:24:44.594Z,100792.56
2023-05-05T19:27:15.396Z,100796.66
2023-05-05T19:29:43.093Z,100791.63
2023-05-05T19:32:09.754Z,100792.84
2023-05-05T19:34:36.566Z,100792.09
2023-05-05T19:37:03.079Z,100795.75
2023-05-05T19:39:29.651Z,100789.28
2023-05-05T19:41:56.164Z,100794.28
2023-05-05T19:44:23.204Z,100792.00
2023-05-05T19:46:49.871Z,100785.41
2023-05-05T19:49:16.456Z,100787.03
2023-05-05T19:51:43.608Z,100786.66
2023-05-05T19:54:10.284Z,100792.53
2023-05-05T19:56:36.860Z,100795.84
2023-05-05T20:03:42.162Z,100800.28
2023-05-05T20:06:09.436Z,100806.44
2023-05-05T20:08:36.156Z,100808.69
2023-05-05T20:11:02.752Z,100809.59
2023-05-05T20:13:29.246Z,100812.03
2023-05-05T20:15:56.192Z,100808.03
2023-05-05T20:18:22.685Z,100815.13
2023-05-05T20:20:49.264Z,100809.84
2023-05-05T20:23:15.825Z,100809.72
2023-05-05T20:25:42.577Z,100813.47
2023-05-05T20:28:09.060Z,100802.28
2023-05-05T20:30:35.685Z,100797.75
2023-05-05T20:33:02.252Z,100791.31
2023-05-05T20:35:28.867Z,100789.53
2023-05-05T20:37:56.181Z,100783.38
2023-05-05T20:40:22.677Z,100794.59
2023-05-05T20:42:49.173Z,100781.13
2023-05-05T20:45:15.770Z,100783.66
2023-05-05T20:47:42.399Z,100775.41
2023-05-05T20:50:09.382Z,100781.06
2023-05-05T20:52:36.163Z,100777.06
2023-05-05T20:55:02.688Z,100779.38
2023-05-05T20:57:29.395Z,100780.22
2023-05-05T20:59:56.201Z,100777.56
2023-05-05T21:02:22.919Z,100779.50
2023-05-05T21:04:49.521Z,100779.97
2023-05-05T21:07:16.007Z,100790.34
2023-05-05T21:09:46.100Z,100790.94
2023-05-05T21:12:12.690Z,100786.06
2023-05-05T21:14:43.956Z,100792.34
2023-05-05T21:17:10.512Z,100787.06
2023-05-05T21:19:37.032Z,100780.53
2023-05-05T21:22:04.295Z,100782.06
2023-05-05T21:24:31.024Z,100781.75
2023-05-05T21:26:57.561Z,100774.19
2023-05-05T21:29:26.967Z,100779.16
2023-05-05T21:31:53.628Z,100773.84
2023-05-05T21:34:20.187Z,100782.78
2023-05-05T21:36:46.754Z,100780.56
2023-05-05T21:39:13.421Z,100781.16
2023-05-05T21:41:39.980Z,100777.72
2023-05-05T21:44:06.487Z,100777.72
2023-05-05T21:46:33.126Z,100775.88
2023-05-05T21:48:59.688Z,100779.59
2023-05-05T21:51:27.161Z,100782.53
2023-05-05T21:53:53.649Z,100782.41
2023-05-05T21:56:20.255Z,100776.19
2023-05-05T21:58:46.794Z,100783.13
2023-05-05T22:01:13.454Z,100774.09
2023-05-05T22:03:42.113Z,100786.50
2023-05-05T22:06:08.907Z,100782.97
2023-05-05T22:08:35.521Z,100788.13
2023-05-05T22:11:02.151Z,100780.69
2023-05-05T22:13:28.701Z,100779.84
2023-05-05T22:15:55.375Z,100786.47
2023-05-05T22:18:21.996Z,100781.34
2023-05-05T22:20:48.700Z,100783.47
2023-05-05T22:23:16.454Z,100787.66
2023-05-05T22:25:44.409Z,100784.31
2023-05-05T22:28:11.497Z,100786.84
2023-05-05T22:30:38.069Z,100780.94
2023-05-05T22:33:04.689Z,100786.81
2023-05-05T22:35:31.973Z,100781.75
2023-05-05T22:37:59.036Z,100776.59
2023-05-05T22:40:25.587Z,100787.66
2023-05-05T22:42:52.826Z,100783.13
2023-05-05T22:45:19.551Z,100788.19
2023-05-05T22:47:46.124Z,100783.22
2023-05-05T22:50:12.784Z,100784.97
2023-05-05T22:52:39.360Z,100796.81
2023-05-05T22:55:06.062Z,100791.28
2023-05-05T22:57:34.946Z,100787.94
2023-05-05T23:00:02.834Z,100789.13
2023-05-05T23:02:29.385Z,100780.91
2023-05-05T23:04:55.957Z,100783.22
2023-05-05T23:07:22.458Z,100790.38
2023-05-05T23:09:49.060Z,100784.84
2023-05-05T23:12:15.558Z,100781.75
2023-05-05T23:14:42.259Z,100776.22
2023-05-05T23:17:08.855Z,100786.88
2023-05-05T23:19:36.006Z,100784.06
2023-05-05T23:22:02.893Z,100780.56
2023-05-05T23:24:29.630Z,100784.00
2023-05-05T23:26:59.241Z,100773.06
2023-05-05T23:29:25.781Z,100774.22
2023-05-05T23:31:52.396Z,100778.25
2023-05-05T23:34:19.087Z,100781.75
2023-05-05T23:36:46.042Z,100784.03
2023-05-05T23:39:12.713Z,100784.78
2023-05-05T23:41:39.192Z,100779.13
2023-05-05T23:44:06.004Z,100785.47
2023-05-05T23:46:32.634Z,100783.41
2023-05-05T23:48:59.268Z,100767.94
2023-05-05T23:51:27.118Z,100771.84
2023-05-05T23:53:55.906Z,100777.31
2023-05-05T23:56:23.318Z,100776.97
2023-05-05T23:58:50.014Z,100777.53
